Rotterdam Express — DMRX — position and weather

sailwx.info

Track history (hours):
 
Tides and Currents Weather Stations Pressure Air Temp Water Temp Dewpoint Dewpoint Depression Visibility Wind Speed Wind Dir Waves Ship Positions

Rotterdam Express

Last reported at 2017-May-25 08:30 UTC. Time now 2017-May-25 08:44 UTC.
Position N 37°48' W 122°19'.

Length 294 m; beam 32.2 m; draft 13.6 m.

Type: Ship. MMSI: 211335760.

Date/timePositionNaut miles runAvg speedWind from/ knotsBaromVisibWave heightAir tempDewpointWater temp
2017-May-25 08:30N 37°48' W 122°19'0 0.0
2017-May-25 08:00N 37°48' W 122°19'0 0.0
2017-May-25 07:30N 37°48' W 122°19'0 0.0
2017-May-25 07:00N 37°48' W 122°19'0 0.0
2017-May-25 06:29N 37°48' W 122°19'0 0.0
2017-May-25 06:00N 37°48' W 122°19'0 0.0
2017-May-25 05:30N 37°48' W 122°19'0 0.0
2017-May-25 05:00N 37°48' W 122°19'0 0.8
2017-May-25 04:31N 37°48' W 122°19'1 1.4
2017-May-25 04:01N 37°48' W 122°18'3 6.4
2017-May-25 03:30N 37°48' W 122°22'713.3
2017-May-25 03:01N 37°48' W 122°30'816.7
2017-May-25 02:31N 37°46' W 122°40'5 9.4
2017-May-25 02:01N 37°47' W 122°46'4 8.5
2017-May-25 01:30N 37°48' W 122°51'4 9.0
2017-May-25 01:00N 37°51' W 122°56'4 8.9
2017-May-25 00:30N 37°53' W 123°01'4 8.9
2017-May-25 00:00N 37°55' W 123°06'5 9.0
2017-May-24 23:30N 37°57' W 123°11'4 8.7
2017-May-24 23:00N 38°01' W 123°14'4 7.9
2017-May-24 22:30N 38°04' W 123°18'4 8.4
2017-May-24 22:00N 38°07' W 123°21'4 8.7
2017-May-24 21:30N 38°10' W 123°25'3 6.2
2017-May-24 21:00N 38°12' W 123°28'0 1.0
2017-May-24 20:30N 38°12' W 123°29'1 1.1
2017-May-24 20:00N 38°12' W 123°29'1 1.1
2017-May-24 19:30N 38°12' W 123°30'1 1.5
2017-May-24 19:00N 38°12' W 123°31'2 3.6
2017-May-24 18:30N 38°10' W 123°31'0 0.9
2017-May-24 18:00N 38°11' W 123°31'5334.5
2017-May-24 18:00N 38°06' W 123°30'510.7 180 / 81011.1 0.5 14.210.613.0
2017-May-24 17:30N 38°11' W 123°31'0 0.9
2017-May-24 17:00N 38°11' W 123°31'0 0.7
2017-May-24 16:30N 38°12' W 123°32'0 0.0
2017-May-24 16:00N 38°12' W 123°32'1 1.7
2017-May-24 15:30N 38°11' W 123°33'510.5
2017-May-24 15:00N 38°13' W 123°39'4 8.9
2017-May-24 14:30N 38°16' W 123°43'1 0.9
2017-May-24 13:30N 38°17' W 123°43'0 0.9
2017-May-24 13:00N 38°17' W 123°43'0 0.8
2017-May-24 12:30N 38°18' W 123°43'0 1.0
2017-May-24 12:01N 38°18' W 123°43'0 0.9
2017-May-24 11:30N 38°18' W 123°43'1 1.2
2017-May-24 11:00N 38°19' W 123°43'0 1.0
2017-May-24 10:30N 38°20' W 123°43'1 1.1
2017-May-24 10:00N 38°20' W 123°43'1 1.2
2017-May-24 09:30N 38°21' W 123°43'1 1.3
2017-May-24 09:00N 38°21' W 123°43'1 1.2
2017-May-24 08:31N 38°22' W 123°43'1 1.3
2017-May-24 08:01N 38°23' W 123°43'1 1.3
2017-May-24 07:30N 38°23' W 123°43'1 1.3
2017-May-24 07:01N 38°24' W 123°43'1 1.3
2017-May-24 06:30N 38°24' W 123°43'1 1.4
2017-May-24 06:00N 38°25' W 123°44'1 1.4
2017-May-24 05:30N 38°26' W 123°44'1 1.4
2017-May-24 05:00N 38°26' W 123°44'1 1.3
2017-May-24 04:30N 38°27' W 123°44'1 1.4
2017-May-24 04:00N 38°28' W 123°45'1 1.4
2017-May-24 03:30N 38°28' W 123°45'1 1.4
2017-May-24 03:00N 38°29' W 123°46'1 1.5
2017-May-24 02:31N 38°30' W 123°46'1 1.5
2017-May-24 02:01N 38°30' W 123°47'1 1.4
2017-May-24 01:31N 38°31' W 123°47'1 1.4
2017-May-24 01:00N 38°31' W 123°48'1 1.1
2017-May-24 00:30N 38°32' W 123°48'0 0.8
2017-May-24 00:00N 38°32' W 123°49'4 7.3
2017-May-23 23:30N 38°35' W 123°47'713.5
2017-May-23 23:00N 38°42' W 123°45'1 1.3
2017-May-23 22:24N 38°43' W 123°46'0 1.0
2017-May-23 22:00N 38°43' W 123°46'1 1.0
2017-May-23 21:30N 38°43' W 123°47'0 0.9
2017-May-23 21:00N 38°43' W 123°47'0 0.7
2017-May-23 20:30N 38°43' W 123°47'0 0.9
2017-May-23 20:00N 38°43' W 123°48'0 0.9
2017-May-23 19:30N 38°43' W 123°49'1 1.2
2017-May-23 18:57N 38°43' W 123°50'1 1.2
2017-May-23 18:30N 38°43' W 123°50'1 1.1
2017-May-23 18:00N 38°43' W 123°51'4523187.2
2017-May-23 18:00N 38°06' W 123°18'4592.9 180 / 101016.2 0.5 14.6 9.812.0
2017-May-23 17:30N 38°43' W 123°51'0 0.8
2017-May-23 16:59N 38°43' W 123°52'0 0.5
2017-May-23 16:27N 38°43' W 123°52'0 0.2
2017-May-23 16:00N 38°42' W 123°52'0 0.3
2017-May-23 15:30N 38°42' W 123°52'1 2.8
2017-May-23 15:01N 38°44' W 123°52'714.2
2017-May-23 14:29N 38°51' W 123°51'2514.2
2017-May-23 12:43N 39°15' W 124°02'313.8
2017-May-23 12:30N 39°18' W 124°03'10516.2
2017-May-23 06:00N 41°00' W 124°36'7614.1 350 / 161015.7 5.4 13.512.213.0
2017-May-23 00:38N 42°15' W 124°49'216.4
2017-May-23 00:30N 42°17' W 124°49'1116.3
2017-May-22 23:49N 42°28' W 124°51'516.3
2017-May-22 23:30N 42°33' W 124°51'816.0
2017-May-22 23:00N 42°41' W 124°52'816.0
2017-May-22 22:30N 42°49' W 124°53'1115.8
2017-May-22 21:49N 43°00' W 124°54'515.3
2017-May-22 21:28N 43°06' W 124°54'1815.3
2017-May-22 20:19N 43°23' W 124°56'615.5
2017-May-22 19:55N 43°29' W 124°56'1015.4
2017-May-22 19:17N 43°39' W 124°57'415.3
2017-May-22 19:00N 43°43' W 124°57'715.3
2017-May-22 18:30N 43°51' W 124°58'815.3
2017-May-22 18:00N 43°58' W 124°59'815.2
2017-May-22 17:30N 44°06' W 124°59'815.1
2017-May-22 17:00N 44°14' W 124°60'714.9
2017-May-22 16:30N 44°21' W 125°00'714.9
2017-May-22 16:00N 44°28' W 125°01'815.1
2017-May-22 15:30N 44°36' W 125°02'714.7
2017-May-22 15:00N 44°43' W 125°02'1514.7
2017-May-22 14:00N 44°58' W 125°03'714.7
2017-May-22 13:30N 45°05' W 125°04'714.8
2017-May-22 13:00N 45°13' W 125°05'714.5
2017-May-22 12:30N 45°20' W 125°05'714.4
2017-May-22 12:00N 45°27' W 125°06'714.6
2017-May-22 11:30N 45°35' W 125°07'714.8
2017-May-22 11:00N 45°42' W 125°07'714.7
2017-May-22 10:30N 45°49' W 125°08'714.6
2017-May-22 10:00N 45°57' W 125°08'714.7
2017-May-22 09:30N 46°04' W 125°09'714.6
2017-May-22 09:01N 46°11' W 125°10'714.7
2017-May-22 08:30N 46°19' W 125°10'815.1
2017-May-22 08:00N 46°26' W 125°11'815.2
2017-May-22 07:30N 46°34' W 125°11'815.3
2017-May-22 07:00N 46°41' W 125°12'815.3
2017-May-22 06:30N 46°49' W 125°13'815.1
2017-May-22 06:00N 46°57' W 125°13'815.5
2017-May-22 05:30N 47°04' W 125°14'815.4
2017-May-22 05:00N 47°12' W 125°15'815.6
2017-May-22 04:30N 47°20' W 125°17'815.6
2017-May-22 04:00N 47°27' W 125°18'815.2
2017-May-22 03:30N 47°35' W 125°20'815.3
2017-May-22 03:00N 47°43' W 125°21'815.3
2017-May-22 02:30N 47°50' W 125°23'715.0
2017-May-22 02:00N 47°58' W 125°24'714.9
2017-May-22 01:30N 48°04' W 125°19'714.7
2017-May-22 01:00N 48°11' W 125°14'815.5
2017-May-22 00:30N 48°18' W 125°11'815.5
2017-May-22 00:00N 48°25' W 125°06'714.1
2017-May-21 23:30N 48°30' W 124°59'815.5
2017-May-21 23:00N 48°31' W 124°47'815.1
2017-May-21 22:30N 48°29' W 124°36'815.6
2017-May-21 22:00N 48°26' W 124°25'815.3
2017-May-21 21:30N 48°23' W 124°15'714.9
2017-May-21 21:00N 48°20' W 124°05'714.7
2017-May-21 20:30N 48°17' W 123°54'714.5
2017-May-21 20:00N 48°16' W 123°43'714.5
2017-May-21 19:30N 48°15' W 123°33'612.6
2017-May-21 19:01N 48°20' W 123°26'510.3
2017-May-21 18:30N 48°23' W 123°20'611.5
2017-May-21 18:01N 48°25' W 123°12'815.9
2017-May-21 17:30N 48°33' W 123°13'815.8
2017-May-21 17:00N 48°41' W 123°15'815.1
2017-May-21 16:30N 48°45' W 123°06'610.9
2017-May-21 15:59N 48°51' W 123°03'816.0
2017-May-21 15:30N 48°56' W 123°12'816.1
2017-May-21 15:00N 49°02' W 123°20'713.5
2017-May-21 14:30N 49°07' W 123°15'1211.5
2017-May-21 13:30N 49°09' W 122°58'3 4.8
2017-May-21 12:55N 49°11' W 122°55'0 0.0
2017-May-21 12:28N 49°11' W 122°55'0 0.0
2017-May-21 11:58N 49°11' W 122°55'0 0.0
2017-May-21 11:28N 49°11' W 122°55'0 0.0
2017-May-21 11:00N 49°11' W 122°55'0 0.0
2017-May-21 10:29N 49°11' W 122°55'0 0.0
2017-May-21 09:58N 49°11' W 122°55'0 0.0
2017-May-21 09:30N 49°11' W 122°55'0 0.0
2017-May-21 09:00N 49°11' W 122°55'0 0.0
2017-May-21 08:29N 49°11' W 122°55'0 0.0
2017-May-21 07:59N 49°11' W 122°55'0 0.0
2017-May-21 07:29N 49°11' W 122°55'0 0.0
2017-May-21 06:53N 49°11' W 122°55'0 0.0
2017-May-21 06:30N 49°11' W 122°55'0 0.0
2017-May-21 05:59N 49°11' W 122°55'0 0.0
2017-May-21 05:29N 49°11' W 122°55'0 0.0
2017-May-21 04:59N 49°11' W 122°55'0 0.0
2017-May-21 04:30N 49°11' W 122°55'0 0.0
2017-May-21 03:58N 49°11' W 122°55'0 0.0
2017-May-21 03:30N 49°11' W 122°55'0 0.0
2017-May-21 03:00N 49°11' W 122°55'0 0.0
2017-May-21 02:30N 49°11' W 122°55'0 0.0
2017-May-21 02:00N 49°11' W 122°55'0 0.0
2017-May-21 01:30N 49°11' W 122°55'0 0.0
2017-May-21 01:00N 49°11' W 122°55'0 0.0
2017-May-21 00:30N 49°11' W 122°55'0 0.0
2017-May-20 23:56N 49°11' W 122°55'0 0.0
2017-May-20 23:29N 49°11' W 122°55'0 0.0
2017-May-20 22:59N 49°11' W 122°55'0 0.0
2017-May-20 22:29N 49°11' W 122°55'0 0.0
2017-May-20 21:59N 49°11' W 122°55'0 0.0
2017-May-20 21:29N 49°11' W 122°55'0 0.0
2017-May-20 20:59N 49°11' W 122°55'0 0.0
2017-May-20 20:29N 49°11' W 122°55'0 0.0
2017-May-20 19:57N 49°11' W 122°55'0 0.0
2017-May-20 19:30N 49°11' W 122°55'0 0.0
2017-May-20 19:00N 49°11' W 122°55'0 0.0
2017-May-20 18:30N 49°11' W 122°55'0 0.0
2017-May-20 18:00N 49°11' W 122°55'0 0.0
2017-May-20 17:29N 49°11' W 122°55'0 0.0
2017-May-20 16:59N 49°11' W 122°55'0 0.0
2017-May-20 16:30N 49°11' W 122°55'0 0.0
2017-May-20 15:58N 49°11' W 122°55'0 0.0
2017-May-20 15:28N 49°11' W 122°55'0 0.0
2017-May-20 14:58N 49°11' W 122°55'0 0.0
2017-May-20 14:28N 49°11' W 122°55'0 0.0
2017-May-20 13:29N 49°11' W 122°55'0 0.0
2017-May-20 12:59N 49°11' W 122°55'0 0.0
2017-May-20 12:29N 49°11' W 122°55'0 0.0
2017-May-20 11:59N 49°11' W 122°55'0 0.0
2017-May-20 11:29N 49°11' W 122°55'0 0.0
2017-May-20 10:59N 49°11' W 122°55'0 0.0
2017-May-20 10:29N 49°11' W 122°55'0 0.0
2017-May-20 09:59N 49°11' W 122°55'0 0.0
2017-May-20 09:28N 49°11' W 122°55'0 0.0
2017-May-20 09:00N 49°11' W 122°55'0 0.0
2017-May-20 08:30N 49°11' W 122°55'0 0.0
2017-May-20 08:00N 49°11' W 122°55'0 0.0
2017-May-20 07:29N 49°11' W 122°55'0 0.0
2017-May-20 06:58N 49°11' W 122°55'0 0.0
2017-May-20 06:30N 49°11' W 122°55'0 0.0
2017-May-20 05:56N 49°11' W 122°55'0 0.0
2017-May-20 05:28N 49°11' W 122°55'0 0.0
2017-May-20 05:00N 49°11' W 122°55'0 0.0
2017-May-20 04:29N 49°11' W 122°55'0 0.0
2017-May-20 04:00N 49°11' W 122°55'0 0.0
2017-May-20 03:29N 49°11' W 122°55'0 0.0
2017-May-20 02:59N 49°11' W 122°55'0 0.0
2017-May-20 02:29N 49°11' W 122°55'0 0.0
2017-May-20 01:59N 49°11' W 122°55'0 0.0
2017-May-20 01:29N 49°11' W 122°55'0 0.0
2017-May-20 00:58N 49°11' W 122°55'0 0.0
2017-May-20 00:28N 49°11' W 122°55'0 0.0
2017-May-19 23:57N 49°11' W 122°55'0 0.0
2017-May-19 23:30N 49°11' W 122°55'0 0.0
2017-May-19 23:00N 49°11' W 122°55'0 0.0
2017-May-19 22:30N 49°11' W 122°55'1 2.5
2017-May-19 22:00N 49°10' W 122°56'4 8.4
2017-May-19 21:30N 49°09' W 123°02'511.1
2017-May-19 21:00N 49°07' W 123°09'611.6
2017-May-19 20:30N 49°06' W 123°18'4 8.3
2017-May-19 20:00N 49°02' W 123°18'815.4
2017-May-19 19:31N 48°57' W 123°09'1018.9
2017-May-19 19:00N 48°49' W 123°01'917.5
2017-May-19 18:30N 48°43' W 123°10'815.6
2017-May-19 18:01N 48°35' W 123°13'918.5
2017-May-19 17:30N 48°26' W 123°11'816.4
2017-May-19 17:01N 48°22' W 123°21'612.6
2017-May-19 16:31N 48°16' W 123°26'714.1
2017-May-19 16:00N 48°10' W 123°23'612.9
2017-May-19 15:31N 48°11' W 123°13'1019.6
2017-May-19 15:00N 48°12' W 122°59'1818.1
2017-May-19 14:00N 48°01' W 122°37'1019.7
2017-May-19 13:31N 47°53' W 122°28'1019.5
2017-May-19 13:01N 47°44' W 122°26'714.9
2017-May-19 12:30N 47°37' W 122°23'2 4.2
2017-May-19 11:58N 47°35' W 122°21'0 0.3
2017-May-19 11:28N 47°35' W 122°21'0 0.0
2017-May-19 10:58N 47°35' W 122°21'0 0.0
2017-May-19 10:28N 47°35' W 122°21'0 0.0
2017-May-19 09:58N 47°35' W 122°21'0 0.0
2017-May-19 09:28N 47°35' W 122°21'0 0.0
2017-May-19 08:58N 47°35' W 122°21'0 0.0
2017-May-19 08:28N 47°35' W 122°21'0 0.0
2017-May-19 07:58N 47°35' W 122°21'0 0.0
2017-May-19 07:28N 47°35' W 122°21'0 0.0
2017-May-19 06:58N 47°35' W 122°21'0 0.0
2017-May-19 06:28N 47°35' W 122°21'0 0.0
2017-May-19 05:58N 47°35' W 122°21'0 0.0
2017-May-19 05:28N 47°35' W 122°21'0 0.0
2017-May-19 04:58N 47°35' W 122°21'0 0.0
2017-May-19 04:28N 47°35' W 122°21'0 0.0
2017-May-19 03:58N 47°35' W 122°21'0 0.0
2017-May-19 03:28N 47°35' W 122°21'0 0.0
2017-May-19 02:58N 47°35' W 122°21'0 0.0
2017-May-19 02:28N 47°35' W 122°21'0 0.0
2017-May-19 01:58N 47°35' W 122°21'0 0.0
2017-May-19 01:28N 47°35' W 122°21'0 0.0
2017-May-19 00:58N 47°35' W 122°21'0 0.0
2017-May-19 00:28N 47°35' W 122°21'0 0.0
2017-May-18 23:58N 47°35' W 122°21'0 0.0
2017-May-18 23:28N 47°35' W 122°21'0 0.0
2017-May-18 22:58N 47°35' W 122°21'0 0.0
2017-May-18 22:28N 47°35' W 122°21'0 0.0
2017-May-18 21:58N 47°35' W 122°21'0 0.0
2017-May-18 21:28N 47°35' W 122°21'0 0.0
2017-May-18 20:58N 47°35' W 122°21'0 0.0
2017-May-18 20:25N 47°35' W 122°21'0 0.0
2017-May-18 19:58N 47°35' W 122°21'0 0.0
2017-May-18 19:28N 47°35' W 122°21'0 0.0
2017-May-18 18:58N 47°35' W 122°21'0 0.0
2017-May-18 18:28N 47°35' W 122°21'0 0.0
2017-May-18 17:58N 47°35' W 122°21'0 0.0
2017-May-18 17:28N 47°35' W 122°21'0 0.0
2017-May-18 16:58N 47°35' W 122°21'0 0.0
2017-May-18 16:28N 47°35' W 122°21'0 0.0
2017-May-18 15:58N 47°35' W 122°21'0 0.0
2017-May-18 15:28N 47°35' W 122°21'0 0.0
2017-May-18 14:58N 47°35' W 122°21'0 0.0
2017-May-18 13:58N 47°35' W 122°21'0 0.0
2017-May-18 13:29N 47°35' W 122°21'0 0.5
2017-May-18 13:00N 47°35' W 122°21'2 3.4
2017-May-18 12:30N 47°37' W 122°22'3 6.6
2017-May-18 12:00N 47°38' W 122°26'714.2
2017-May-18 11:31N 47°45' W 122°27'917.0
2017-May-18 11:00N 47°53' W 122°29'815.3
2017-May-18 10:30N 47°59' W 122°37'815.6
2017-May-18 09:59N 48°07' W 122°41'715.5
2017-May-18 09:30N 48°11' W 122°50'916.9
2017-May-18 09:00N 48°12' W 123°03'917.5
2017-May-18 08:31N 48°11' W 123°15'612.7
2017-May-18 08:00N 48°10' W 123°25'713.1
2017-May-18 07:30N 48°13' W 123°33'816.6
2017-May-18 07:00N 48°13' W 123°46'714.9
2017-May-18 06:30N 48°14' W 123°57'815.5
2017-May-18 06:01N 48°17' W 124°07'815.5
2017-May-18 05:30N 48°21' W 124°18'815.5
2017-May-18 05:01N 48°24' W 124°28'815.3
2017-May-18 04:31N 48°27' W 124°39'815.0
2017-May-18 04:00N 48°29' W 124°50'714.4
2017-May-18 03:31N 48°28' W 125°01'815.6
2017-May-18 03:00N 48°20' W 125°06'815.7
2017-May-18 02:30N 48°13' W 125°10'815.7
2017-May-18 02:00N 48°05' W 125°14'7715.5
2017-May-17 21:02N 46°49' W 125°13'215.6
2017-May-17 20:53N 46°46' W 125°13'715.6
2017-May-17 20:25N 46°39' W 125°12'1115.5
2017-May-17 19:44N 46°29' W 125°11'415.4
2017-May-17 19:30N 46°25' W 125°11'815.5
2017-May-17 19:00N 46°17' W 125°10'815.5
2017-May-17 18:30N 46°09' W 125°09'815.3
2017-May-17 18:00N 46°02' W 125°09'8554.6
2017-May-17 18:00N 45°54' W 125°06'2 3.2 270 / 81022.2 5.4 13.6 7.413.0
2017-May-17 17:31N 45°54' W 125°08'815.6
2017-May-17 17:00N 45°46' W 125°08'815.6
2017-May-17 16:30N 45°39' W 125°07'815.6
2017-May-17 16:01N 45°31' W 125°06'815.6
2017-May-17 15:30N 45°23' W 125°06'815.5
2017-May-17 14:59N 45°15' W 125°05'1015.5
2017-May-17 14:21N 45°05' W 125°04'39815.5
2017-May-16 12:36N 38°32' W 123°36'515.2
2017-May-16 12:18N 38°28' W 123°34'414.8
2017-May-16 12:00N 38°25' W 123°31'714.6
2017-May-16 11:30N 38°18' W 123°26'815.2
2017-May-16 11:00N 38°12' W 123°22'611.3
2017-May-16 10:30N 38°07' W 123°18'5 9.7
2017-May-16 10:00N 38°03' W 123°14'5 9.7
2017-May-16 09:30N 37°60' W 123°10'5 9.6
2017-May-16 09:00N 37°57' W 123°05'5 9.9
2017-May-16 08:30N 37°54' W 122°59'5 9.6
2017-May-16 08:00N 37°52' W 122°54'5 9.8
2017-May-16 07:30N 37°49' W 122°49'5 9.6
2017-May-16 07:00N 37°46' W 122°44'3 5.7
2017-May-16 06:30N 37°46' W 122°41'714.3
2017-May-16 06:00N 37°48' W 122°32'713.5
2017-May-16 05:30N 37°49' W 122°23'4 8.3
2017-May-16 05:00N 37°48' W 122°19'0 0.1
2017-May-16 04:29N 37°48' W 122°19'0 0.0
2017-May-16 03:59N 37°48' W 122°19'0 0.0
2017-May-16 03:29N 37°48' W 122°19'0 0.0
2017-May-16 02:59N 37°48' W 122°19'0 0.0
2017-May-16 02:29N 37°48' W 122°19'0 0.0
2017-May-16 01:59N 37°48' W 122°19'0 0.0
2017-May-16 01:29N 37°48' W 122°19'0 0.0
2017-May-16 00:59N 37°48' W 122°19'0 0.0
2017-May-16 00:29N 37°48' W 122°19'0 0.0
2017-May-15 23:59N 37°48' W 122°19'0 0.0
2017-May-15 23:29N 37°48' W 122°19'0 0.0
2017-May-15 22:59N 37°48' W 122°19'0 0.0
2017-May-15 22:26N 37°48' W 122°19'0 0.0
2017-May-15 21:59N 37°48' W 122°19'0 0.0
2017-May-15 21:29N 37°48' W 122°19'0 0.0
2017-May-15 20:59N 37°48' W 122°19'0 0.0
2017-May-15 20:29N 37°48' W 122°19'0 0.0
2017-May-15 19:59N 37°48' W 122°19'0 0.0
2017-May-15 19:29N 37°48' W 122°19'0 0.0
2017-May-15 18:59N 37°48' W 122°19'0 0.0
2017-May-15 18:29N 37°48' W 122°19'0 0.0
2017-May-15 17:59N 37°48' W 122°19'0 0.0
2017-May-15 17:29N 37°48' W 122°19'0 0.1
2017-May-15 16:59N 37°48' W 122°19'0 0.1
2017-May-15 16:29N 37°48' W 122°19'0 0.0
2017-May-15 15:59N 37°48' W 122°19'0 0.0
2017-May-15 15:29N 37°48' W 122°19'0 0.0
2017-May-15 14:59N 37°48' W 122°19'0 0.0
2017-May-15 14:29N 37°48' W 122°19'0 0.0
2017-May-15 13:29N 37°48' W 122°19'0 0.1
2017-May-15 12:59N 37°48' W 122°19'0 0.1
2017-May-15 12:29N 37°48' W 122°19'0 0.0
2017-May-15 11:59N 37°48' W 122°19'0 0.0
2017-May-15 11:29N 37°48' W 122°19'0 0.0
2017-May-15 10:59N 37°48' W 122°19'0 0.0
2017-May-15 10:29N 37°48' W 122°19'0 0.0
2017-May-15 09:59N 37°48' W 122°19'0 0.0
2017-May-15 09:29N 37°48' W 122°19'0 0.0
2017-May-15 08:59N 37°48' W 122°19'  
Track history (hours):
 
Tides and Currents Weather Stations Pressure Air Temp Water Temp Dewpoint Dewpoint Depression Visibility Wind Speed Wind Dir Waves Ship Positions

Rotterdam Express

Last reported at 2017-May-25 08:30 UTC. Time now 2017-May-25 08:44 UTC.
Position N 37°48' W 122°19'.

Length 294 m; beam 32.2 m; draft 13.6 m.

Type: Ship. MMSI: 211335760.

Date/timePositionNaut miles runAvg speedWind from/ knotsBaromVisibWave heightAir tempDewpointWater temp
2017-May-25 08:30N 37°48' W 122°19'0 0.0
2017-May-25 08:00N 37°48' W 122°19'0 0.0
2017-May-25 07:30N 37°48' W 122°19'0 0.0
2017-May-25 07:00N 37°48' W 122°19'0 0.0
2017-May-25 06:29N 37°48' W 122°19'0 0.0
2017-May-25 06:00N 37°48' W 122°19'0 0.0
2017-May-25 05:30N 37°48' W 122°19'0 0.0
2017-May-25 05:00N 37°48' W 122°19'0 0.8
2017-May-25 04:31N 37°48' W 122°19'1 1.4
2017-May-25 04:01N 37°48' W 122°18'3 6.4
2017-May-25 03:30N 37°48' W 122°22'713.3
2017-May-25 03:01N 37°48' W 122°30'816.7
2017-May-25 02:31N 37°46' W 122°40'5 9.4
2017-May-25 02:01N 37°47' W 122°46'4 8.5
2017-May-25 01:30N 37°48' W 122°51'4 9.0
2017-May-25 01:00N 37°51' W 122°56'4 8.9
2017-May-25 00:30N 37°53' W 123°01'4 8.9
2017-May-25 00:00N 37°55' W 123°06'5 9.0
2017-May-24 23:30N 37°57' W 123°11'4 8.7
2017-May-24 23:00N 38°01' W 123°14'4 7.9
2017-May-24 22:30N 38°04' W 123°18'4 8.4
2017-May-24 22:00N 38°07' W 123°21'4 8.7
2017-May-24 21:30N 38°10' W 123°25'3 6.2
2017-May-24 21:00N 38°12' W 123°28'0 1.0
2017-May-24 20:30N 38°12' W 123°29'1 1.1
2017-May-24 20:00N 38°12' W 123°29'1 1.1
2017-May-24 19:30N 38°12' W 123°30'1 1.5
2017-May-24 19:00N 38°12' W 123°31'2 3.6
2017-May-24 18:30N 38°10' W 123°31'0 0.9
2017-May-24 18:00N 38°11' W 123°31'5334.5
2017-May-24 18:00N 38°06' W 123°30'510.7 180 / 81011.1 0.5 14.210.613.0
2017-May-24 17:30N 38°11' W 123°31'0 0.9
2017-May-24 17:00N 38°11' W 123°31'0 0.7
2017-May-24 16:30N 38°12' W 123°32'0 0.0
2017-May-24 16:00N 38°12' W 123°32'1 1.7
2017-May-24 15:30N 38°11' W 123°33'510.5
2017-May-24 15:00N 38°13' W 123°39'4 8.9
2017-May-24 14:30N 38°16' W 123°43'1 0.9
2017-May-24 13:30N 38°17' W 123°43'0 0.9
2017-May-24 13:00N 38°17' W 123°43'0 0.8
2017-May-24 12:30N 38°18' W 123°43'0 1.0
2017-May-24 12:01N 38°18' W 123°43'0 0.9
2017-May-24 11:30N 38°18' W 123°43'1 1.2
2017-May-24 11:00N 38°19' W 123°43'0 1.0
2017-May-24 10:30N 38°20' W 123°43'1 1.1
2017-May-24 10:00N 38°20' W 123°43'1 1.2
2017-May-24 09:30N 38°21' W 123°43'1 1.3
2017-May-24 09:00N 38°21' W 123°43'1 1.2
2017-May-24 08:31N 38°22' W 123°43'1 1.3
2017-May-24 08:01N 38°23' W 123°43'1 1.3
2017-May-24 07:30N 38°23' W 123°43'1 1.3
2017-May-24 07:01N 38°24' W 123°43'1 1.3
2017-May-24 06:30N 38°24' W 123°43'1 1.4
2017-May-24 06:00N 38°25' W 123°44'1 1.4
2017-May-24 05:30N 38°26' W 123°44'1 1.4
2017-May-24 05:00N 38°26' W 123°44'1 1.3
2017-May-24 04:30N 38°27' W 123°44'1 1.4
2017-May-24 04:00N 38°28' W 123°45'1 1.4
2017-May-24 03:30N 38°28' W 123°45'1 1.4
2017-May-24 03:00N 38°29' W 123°46'1 1.5
2017-May-24 02:31N 38°30' W 123°46'1 1.5
2017-May-24 02:01N 38°30' W 123°47'1 1.4
2017-May-24 01:31N 38°31' W 123°47'1 1.4
2017-May-24 01:00N 38°31' W 123°48'1 1.1
2017-May-24 00:30N 38°32' W 123°48'0 0.8
2017-May-24 00:00N 38°32' W 123°49'4 7.3
2017-May-23 23:30N 38°35' W 123°47'713.5
2017-May-23 23:00N 38°42' W 123°45'1 1.3
2017-May-23 22:24N 38°43' W 123°46'0 1.0
2017-May-23 22:00N 38°43' W 123°46'1 1.0
2017-May-23 21:30N 38°43' W 123°47'0 0.9
2017-May-23 21:00N 38°43' W 123°47'0 0.7
2017-May-23 20:30N 38°43' W 123°47'0 0.9
2017-May-23 20:00N 38°43' W 123°48'0 0.9
2017-May-23 19:30N 38°43' W 123°49'1 1.2
2017-May-23 18:57N 38°43' W 123°50'1 1.2
2017-May-23 18:30N 38°43' W 123°50'1 1.1
2017-May-23 18:00N 38°43' W 123°51'4523187.2
2017-May-23 18:00N 38°06' W 123°18'4592.9 180 / 101016.2 0.5 14.6 9.812.0
2017-May-23 17:30N 38°43' W 123°51'0 0.8
2017-May-23 16:59N 38°43' W 123°52'0 0.5
2017-May-23 16:27N 38°43' W 123°52'0 0.2
2017-May-23 16:00N 38°42' W 123°52'0 0.3
2017-May-23 15:30N 38°42' W 123°52'1 2.8
2017-May-23 15:01N 38°44' W 123°52'714.2
2017-May-23 14:29N 38°51' W 123°51'2514.2
2017-May-23 12:43N 39°15' W 124°02'313.8
2017-May-23 12:30N 39°18' W 124°03'10516.2
2017-May-23 06:00N 41°00' W 124°36'7614.1 350 / 161015.7 5.4 13.512.213.0
2017-May-23 00:38N 42°15' W 124°49'216.4
2017-May-23 00:30N 42°17' W 124°49'1116.3
2017-May-22 23:49N 42°28' W 124°51'516.3
2017-May-22 23:30N 42°33' W 124°51'816.0
2017-May-22 23:00N 42°41' W 124°52'816.0
2017-May-22 22:30N 42°49' W 124°53'1115.8
2017-May-22 21:49N 43°00' W 124°54'515.3
2017-May-22 21:28N 43°06' W 124°54'1815.3
2017-May-22 20:19N 43°23' W 124°56'615.5
2017-May-22 19:55N 43°29' W 124°56'1015.4
2017-May-22 19:17N 43°39' W 124°57'415.3
2017-May-22 19:00N 43°43' W 124°57'715.3
2017-May-22 18:30N 43°51' W 124°58'815.3
2017-May-22 18:00N 43°58' W 124°59'815.2
2017-May-22 17:30N 44°06' W 124°59'815.1
2017-May-22 17:00N 44°14' W 124°60'714.9
2017-May-22 16:30N 44°21' W 125°00'714.9
2017-May-22 16:00N 44°28' W 125°01'815.1
2017-May-22 15:30N 44°36' W 125°02'714.7
2017-May-22 15:00N 44°43' W 125°02'1514.7
2017-May-22 14:00N 44°58' W 125°03'714.7
2017-May-22 13:30N 45°05' W 125°04'714.8
2017-May-22 13:00N 45°13' W 125°05'714.5
2017-May-22 12:30N 45°20' W 125°05'714.4
2017-May-22 12:00N 45°27' W 125°06'714.6
2017-May-22 11:30N 45°35' W 125°07'714.8
2017-May-22 11:00N 45°42' W 125°07'714.7
2017-May-22 10:30N 45°49' W 125°08'714.6
2017-May-22 10:00N 45°57' W 125°08'714.7
2017-May-22 09:30N 46°04' W 125°09'714.6
2017-May-22 09:01N 46°11' W 125°10'714.7
2017-May-22 08:30N 46°19' W 125°10'815.1
2017-May-22 08:00N 46°26' W 125°11'815.2
2017-May-22 07:30N 46°34' W 125°11'815.3
2017-May-22 07:00N 46°41' W 125°12'815.3
2017-May-22 06:30N 46°49' W 125°13'815.1
2017-May-22 06:00N 46°57' W 125°13'815.5
2017-May-22 05:30N 47°04' W 125°14'815.4
2017-May-22 05:00N 47°12' W 125°15'815.6
2017-May-22 04:30N 47°20' W 125°17'815.6
2017-May-22 04:00N 47°27' W 125°18'815.2
2017-May-22 03:30N 47°35' W 125°20'815.3
2017-May-22 03:00N 47°43' W 125°21'815.3
2017-May-22 02:30N 47°50' W 125°23'715.0
2017-May-22 02:00N 47°58' W 125°24'714.9
2017-May-22 01:30N 48°04' W 125°19'714.7
2017-May-22 01:00N 48°11' W 125°14'815.5
2017-May-22 00:30N 48°18' W 125°11'815.5
2017-May-22 00:00N 48°25' W 125°06'714.1
2017-May-21 23:30N 48°30' W 124°59'815.5
2017-May-21 23:00N 48°31' W 124°47'815.1
2017-May-21 22:30N 48°29' W 124°36'815.6
2017-May-21 22:00N 48°26' W 124°25'815.3
2017-May-21 21:30N 48°23' W 124°15'714.9
2017-May-21 21:00N 48°20' W 124°05'714.7
2017-May-21 20:30N 48°17' W 123°54'714.5
2017-May-21 20:00N 48°16' W 123°43'714.5
2017-May-21 19:30N 48°15' W 123°33'612.6
2017-May-21 19:01N 48°20' W 123°26'510.3
2017-May-21 18:30N 48°23' W 123°20'611.5
2017-May-21 18:01N 48°25' W 123°12'815.9
2017-May-21 17:30N 48°33' W 123°13'815.8
2017-May-21 17:00N 48°41' W 123°15'815.1
2017-May-21 16:30N 48°45' W 123°06'610.9
2017-May-21 15:59N 48°51' W 123°03'816.0
2017-May-21 15:30N 48°56' W 123°12'816.1
2017-May-21 15:00N 49°02' W 123°20'713.5
2017-May-21 14:30N 49°07' W 123°15'1211.5
2017-May-21 13:30N 49°09' W 122°58'3 4.8
2017-May-21 12:55N 49°11' W 122°55'0 0.0
2017-May-21 12:28N 49°11' W 122°55'0 0.0
2017-May-21 11:58N 49°11' W 122°55'0 0.0
2017-May-21 11:28N 49°11' W 122°55'0 0.0
2017-May-21 11:00N 49°11' W 122°55'0 0.0
2017-May-21 10:29N 49°11' W 122°55'0 0.0
2017-May-21 09:58N 49°11' W 122°55'0 0.0
2017-May-21 09:30N 49°11' W 122°55'0 0.0
2017-May-21 09:00N 49°11' W 122°55'0 0.0
2017-May-21 08:29N 49°11' W 122°55'0 0.0
2017-May-21 07:59N 49°11' W 122°55'0 0.0
2017-May-21 07:29N 49°11' W 122°55'0 0.0
2017-May-21 06:53N 49°11' W 122°55'0 0.0
2017-May-21 06:30N 49°11' W 122°55'0 0.0
2017-May-21 05:59N 49°11' W 122°55'0 0.0
2017-May-21 05:29N 49°11' W 122°55'0 0.0
2017-May-21 04:59N 49°11' W 122°55'0 0.0
2017-May-21 04:30N 49°11' W 122°55'0 0.0
2017-May-21 03:58N 49°11' W 122°55'0 0.0
2017-May-21 03:30N 49°11' W 122°55'0 0.0
2017-May-21 03:00N 49°11' W 122°55'0 0.0
2017-May-21 02:30N 49°11' W 122°55'0 0.0
2017-May-21 02:00N 49°11' W 122°55'0 0.0
2017-May-21 01:30N 49°11' W 122°55'0 0.0
2017-May-21 01:00N 49°11' W 122°55'0 0.0
2017-May-21 00:30N 49°11' W 122°55'0 0.0
2017-May-20 23:56N 49°11' W 122°55'0 0.0
2017-May-20 23:29N 49°11' W 122°55'0 0.0
2017-May-20 22:59N 49°11' W 122°55'0 0.0
2017-May-20 22:29N 49°11' W 122°55'0 0.0
2017-May-20 21:59N 49°11' W 122°55'0 0.0
2017-May-20 21:29N 49°11' W 122°55'0 0.0
2017-May-20 20:59N 49°11' W 122°55'0 0.0
2017-May-20 20:29N 49°11' W 122°55'0 0.0
2017-May-20 19:57N 49°11' W 122°55'0 0.0
2017-May-20 19:30N 49°11' W 122°55'0 0.0
2017-May-20 19:00N 49°11' W 122°55'0 0.0
2017-May-20 18:30N 49°11' W 122°55'0 0.0
2017-May-20 18:00N 49°11' W 122°55'0 0.0
2017-May-20 17:29N 49°11' W 122°55'0 0.0
2017-May-20 16:59N 49°11' W 122°55'0 0.0
2017-May-20 16:30N 49°11' W 122°55'0 0.0
2017-May-20 15:58N 49°11' W 122°55'0 0.0
2017-May-20 15:28N 49°11' W 122°55'0 0.0
2017-May-20 14:58N 49°11' W 122°55'0 0.0
2017-May-20 14:28N 49°11' W 122°55'0 0.0
2017-May-20 13:29N 49°11' W 122°55'0 0.0
2017-May-20 12:59N 49°11' W 122°55'0 0.0
2017-May-20 12:29N 49°11' W 122°55'0 0.0
2017-May-20 11:59N 49°11' W 122°55'0 0.0
2017-May-20 11:29N 49°11' W 122°55'0 0.0
2017-May-20 10:59N 49°11' W 122°55'0 0.0
2017-May-20 10:29N 49°11' W 122°55'0 0.0
2017-May-20 09:59N 49°11' W 122°55'0 0.0
2017-May-20 09:28N 49°11' W 122°55'0 0.0
2017-May-20 09:00N 49°11' W 122°55'0 0.0
2017-May-20 08:30N 49°11' W 122°55'0 0.0
2017-May-20 08:00N 49°11' W 122°55'0 0.0
2017-May-20 07:29N 49°11' W 122°55'0 0.0
2017-May-20 06:58N 49°11' W 122°55'0 0.0
2017-May-20 06:30N 49°11' W 122°55'0 0.0
2017-May-20 05:56N 49°11' W 122°55'0 0.0
2017-May-20 05:28N 49°11' W 122°55'0 0.0
2017-May-20 05:00N 49°11' W 122°55'0 0.0
2017-May-20 04:29N 49°11' W 122°55'0 0.0
2017-May-20 04:00N 49°11' W 122°55'0 0.0
2017-May-20 03:29N 49°11' W 122°55'0 0.0
2017-May-20 02:59N 49°11' W 122°55'0 0.0
2017-May-20 02:29N 49°11' W 122°55'0 0.0
2017-May-20 01:59N 49°11' W 122°55'0 0.0
2017-May-20 01:29N 49°11' W 122°55'0 0.0
2017-May-20 00:58N 49°11' W 122°55'0 0.0
2017-May-20 00:28N 49°11' W 122°55'0 0.0
2017-May-19 23:57N 49°11' W 122°55'0 0.0
2017-May-19 23:30N 49°11' W 122°55'0 0.0
2017-May-19 23:00N 49°11' W 122°55'0 0.0
2017-May-19 22:30N 49°11' W 122°55'1 2.5
2017-May-19 22:00N 49°10' W 122°56'4 8.4
2017-May-19 21:30N 49°09' W 123°02'511.1
2017-May-19 21:00N 49°07' W 123°09'611.6
2017-May-19 20:30N 49°06' W 123°18'4 8.3
2017-May-19 20:00N 49°02' W 123°18'815.4
2017-May-19 19:31N 48°57' W 123°09'1018.9
2017-May-19 19:00N 48°49' W 123°01'917.5
2017-May-19 18:30N 48°43' W 123°10'815.6
2017-May-19 18:01N 48°35' W 123°13'918.5
2017-May-19 17:30N 48°26' W 123°11'816.4
2017-May-19 17:01N 48°22' W 123°21'612.6
2017-May-19 16:31N 48°16' W 123°26'714.1
2017-May-19 16:00N 48°10' W 123°23'612.9
2017-May-19 15:31N 48°11' W 123°13'1019.6
2017-May-19 15:00N 48°12' W 122°59'1818.1
2017-May-19 14:00N 48°01' W 122°37'1019.7
2017-May-19 13:31N 47°53' W 122°28'1019.5
2017-May-19 13:01N 47°44' W 122°26'714.9
2017-May-19 12:30N 47°37' W 122°23'2 4.2
2017-May-19 11:58N 47°35' W 122°21'0 0.3
2017-May-19 11:28N 47°35' W 122°21'0 0.0
2017-May-19 10:58N 47°35' W 122°21'0 0.0
2017-May-19 10:28N 47°35' W 122°21'0 0.0
2017-May-19 09:58N 47°35' W 122°21'0 0.0
2017-May-19 09:28N 47°35' W 122°21'0 0.0
2017-May-19 08:58N 47°35' W 122°21'0 0.0
2017-May-19 08:28N 47°35' W 122°21'0 0.0
2017-May-19 07:58N 47°35' W 122°21'0 0.0
2017-May-19 07:28N 47°35' W 122°21'0 0.0
2017-May-19 06:58N 47°35' W 122°21'0 0.0
2017-May-19 06:28N 47°35' W 122°21'0 0.0
2017-May-19 05:58N 47°35' W 122°21'0 0.0
2017-May-19 05:28N 47°35' W 122°21'0 0.0
2017-May-19 04:58N 47°35' W 122°21'0 0.0
2017-May-19 04:28N 47°35' W 122°21'0 0.0
2017-May-19 03:58N 47°35' W 122°21'0 0.0
2017-May-19 03:28N 47°35' W 122°21'0 0.0
2017-May-19 02:58N 47°35' W 122°21'0 0.0
2017-May-19 02:28N 47°35' W 122°21'0 0.0
2017-May-19 01:58N 47°35' W 122°21'0 0.0
2017-May-19 01:28N 47°35' W 122°21'0 0.0
2017-May-19 00:58N 47°35' W 122°21'0 0.0
2017-May-19 00:28N 47°35' W 122°21'0 0.0
2017-May-18 23:58N 47°35' W 122°21'0 0.0
2017-May-18 23:28N 47°35' W 122°21'0 0.0
2017-May-18 22:58N 47°35' W 122°21'0 0.0
2017-May-18 22:28N 47°35' W 122°21'0 0.0
2017-May-18 21:58N 47°35' W 122°21'0 0.0
2017-May-18 21:28N 47°35' W 122°21'0 0.0
2017-May-18 20:58N 47°35' W 122°21'0 0.0
2017-May-18 20:25N 47°35' W 122°21'0 0.0
2017-May-18 19:58N 47°35' W 122°21'0 0.0
2017-May-18 19:28N 47°35' W 122°21'0 0.0
2017-May-18 18:58N 47°35' W 122°21'0 0.0
2017-May-18 18:28N 47°35' W 122°21'0 0.0
2017-May-18 17:58N 47°35' W 122°21'0 0.0
2017-May-18 17:28N 47°35' W 122°21'0 0.0
2017-May-18 16:58N 47°35' W 122°21'0 0.0
2017-May-18 16:28N 47°35' W 122°21'0 0.0
2017-May-18 15:58N 47°35' W 122°21'0 0.0
2017-May-18 15:28N 47°35' W 122°21'0 0.0
2017-May-18 14:58N 47°35' W 122°21'0 0.0
2017-May-18 13:58N 47°35' W 122°21'0 0.0
2017-May-18 13:29N 47°35' W 122°21'0 0.5
2017-May-18 13:00N 47°35' W 122°21'2 3.4
2017-May-18 12:30N 47°37' W 122°22'3 6.6
2017-May-18 12:00N 47°38' W 122°26'714.2
2017-May-18 11:31N 47°45' W 122°27'917.0
2017-May-18 11:00N 47°53' W 122°29'815.3
2017-May-18 10:30N 47°59' W 122°37'815.6
2017-May-18 09:59N 48°07' W 122°41'715.5
2017-May-18 09:30N 48°11' W 122°50'916.9
2017-May-18 09:00N 48°12' W 123°03'917.5
2017-May-18 08:31N 48°11' W 123°15'612.7
2017-May-18 08:00N 48°10' W 123°25'713.1
2017-May-18 07:30N 48°13' W 123°33'816.6
2017-May-18 07:00N 48°13' W 123°46'714.9
2017-May-18 06:30N 48°14' W 123°57'815.5
2017-May-18 06:01N 48°17' W 124°07'815.5
2017-May-18 05:30N 48°21' W 124°18'815.5
2017-May-18 05:01N 48°24' W 124°28'815.3
2017-May-18 04:31N 48°27' W 124°39'815.0
2017-May-18 04:00N 48°29' W 124°50'714.4
2017-May-18 03:31N 48°28' W 125°01'815.6
2017-May-18 03:00N 48°20' W 125°06'815.7
2017-May-18 02:30N 48°13' W 125°10'815.7
2017-May-18 02:00N 48°05' W 125°14'7715.5
2017-May-17 21:02N 46°49' W 125°13'215.6
2017-May-17 20:53N 46°46' W 125°13'715.6
2017-May-17 20:25N 46°39' W 125°12'1115.5
2017-May-17 19:44N 46°29' W 125°11'415.4
2017-May-17 19:30N 46°25' W 125°11'815.5
2017-May-17 19:00N 46°17' W 125°10'815.5
2017-May-17 18:30N 46°09' W 125°09'815.3
2017-May-17 18:00N 46°02' W 125°09'8554.6
2017-May-17 18:00N 45°54' W 125°06'2 3.2 270 / 81022.2 5.4 13.6 7.413.0
2017-May-17 17:31N 45°54' W 125°08'815.6
2017-May-17 17:00N 45°46' W 125°08'815.6
2017-May-17 16:30N 45°39' W 125°07'815.6
2017-May-17 16:01N 45°31' W 125°06'815.6
2017-May-17 15:30N 45°23' W 125°06'815.5
2017-May-17 14:59N 45°15' W 125°05'1015.5
2017-May-17 14:21N 45°05' W 125°04'39815.5
2017-May-16 12:36N 38°32' W 123°36'515.2
2017-May-16 12:18N 38°28' W 123°34'414.8
2017-May-16 12:00N 38°25' W 123°31'714.6
2017-May-16 11:30N 38°18' W 123°26'815.2
2017-May-16 11:00N 38°12' W 123°22'611.3
2017-May-16 10:30N 38°07' W 123°18'5 9.7
2017-May-16 10:00N 38°03' W 123°14'5 9.7
2017-May-16 09:30N 37°60' W 123°10'5 9.6
2017-May-16 09:00N 37°57' W 123°05'5 9.9
2017-May-16 08:30N 37°54' W 122°59'5 9.6
2017-May-16 08:00N 37°52' W 122°54'5 9.8
2017-May-16 07:30N 37°49' W 122°49'5 9.6
2017-May-16 07:00N 37°46' W 122°44'3 5.7
2017-May-16 06:30N 37°46' W 122°41'714.3
2017-May-16 06:00N 37°48' W 122°32'713.5
2017-May-16 05:30N 37°49' W 122°23'4 8.3
2017-May-16 05:00N 37°48' W 122°19'0 0.1
2017-May-16 04:29N 37°48' W 122°19'0 0.0
2017-May-16 03:59N 37°48' W 122°19'0 0.0
2017-May-16 03:29N 37°48' W 122°19'0 0.0
2017-May-16 02:59N 37°48' W 122°19'0 0.0
2017-May-16 02:29N 37°48' W 122°19'0 0.0
2017-May-16 01:59N 37°48' W 122°19'0 0.0
2017-May-16 01:29N 37°48' W 122°19'0 0.0
2017-May-16 00:59N 37°48' W 122°19'0 0.0
2017-May-16 00:29N 37°48' W 122°19'0 0.0
2017-May-15 23:59N 37°48' W 122°19'0 0.0
2017-May-15 23:29N 37°48' W 122°19'0 0.0
2017-May-15 22:59N 37°48' W 122°19'0 0.0
2017-May-15 22:26N 37°48' W 122°19'0 0.0
2017-May-15 21:59N 37°48' W 122°19'0 0.0
2017-May-15 21:29N 37°48' W 122°19'0 0.0
2017-May-15 20:59N 37°48' W 122°19'0 0.0
2017-May-15 20:29N 37°48' W 122°19'0 0.0
2017-May-15 19:59N 37°48' W 122°19'0 0.0
2017-May-15 19:29N 37°48' W 122°19'0 0.0
2017-May-15 18:59N 37°48' W 122°19'0 0.0
2017-May-15 18:29N 37°48' W 122°19'0 0.0
2017-May-15 17:59N 37°48' W 122°19'0 0.0
2017-May-15 17:29N 37°48' W 122°19'0 0.1
2017-May-15 16:59N 37°48' W 122°19'0 0.1
2017-May-15 16:29N 37°48' W 122°19'0 0.0
2017-May-15 15:59N 37°48' W 122°19'0 0.0
2017-May-15 15:29N 37°48' W 122°19'0 0.0
2017-May-15 14:59N 37°48' W 122°19'0 0.0
2017-May-15 14:29N 37°48' W 122°19'0 0.0
2017-May-15 13:29N 37°48' W 122°19'0 0.1
2017-May-15 12:59N 37°48' W 122°19'0 0.1
2017-May-15 12:29N 37°48' W 122°19'0 0.0
2017-May-15 11:59N 37°48' W 122°19'0 0.0
2017-May-15 11:29N 37°48' W 122°19'0 0.0
2017-May-15 10:59N 37°48' W 122°19'0 0.0
2017-May-15 10:29N 37°48' W 122°19'0 0.0
2017-May-15 09:59N 37°48' W 122°19'0 0.0
2017-May-15 09:29N 37°48' W 122°19'0 0.0
2017-May-15 08:59N 37°48' W 122°19'  

Dump ship's entire track history